Trout Creek, Utah
Current Conditions -  °F | °C
As of 4:55 AM on Sunday 23 Nov 2014 (Local Time) from KENV Reporting Station
Clear Clear  
Wind Chill: 23°   Ceiling: Unl
Heat Index: 34°   Visibility: 10mi
Dew Point: 18°   Wind: 17mph
Humidity: 52%   Direction: 310°NW
Pressure: 30.15"   Gusts: 22mph
Location:  40.2503°N, 113.457°W
Report Text: KENV 231155Z AUTO 31015G19KT 10SM CLR 01/M08 A3015 RMK AO1 70013 10040 20010 52024
Loading
Personal Weather Stations






























Interactive Weather Map New forecast layout! Learn more

10-Day Weather Forecast

Advertisements
Track Severe Weather on mobile